createdAt,value
2019-04-10T00:01:40.966Z,12.57
2019-04-10T00:04:47.781Z,12.80
2019-04-10T00:07:35.645Z,12.50
2019-04-10T00:10:42.005Z,12.43
2019-04-10T00:13:29.601Z,11.60
2019-04-10T00:48:52.337Z,12.10
2019-04-10T00:51:41.613Z,12.63
2019-04-10T00:54:31.155Z,12.27
2019-04-10T00:57:19.211Z,11.53
2019-04-10T01:00:06.704Z,12.27
2019-04-10T01:02:54.346Z,12.23
2019-04-10T01:06:01.725Z,12.83
2019-04-10T01:15:14.116Z,11.27
2019-04-10T01:18:02.522Z,11.03
2019-04-10T01:24:02.261Z,11.93
2019-04-10T01:26:49.734Z,12.27
2019-04-10T01:29:39.878Z,11.03
2019-04-10T01:32:27.964Z,12.47
2019-04-10T01:35:35.557Z,12.17
2019-04-10T01:38:23.027Z,11.07
2019-04-10T01:44:22.741Z,11.63
2019-04-10T01:50:08.344Z,12.03
2019-04-10T01:52:59.647Z,11.27
2019-04-10T01:55:47.384Z,10.70
2019-04-10T02:04:58.471Z,11.03
2019-04-10T02:11:32.275Z,10.90
2019-04-10T02:14:20.723Z,10.73
2019-04-10T02:17:08.517Z,10.83
2019-04-10T02:20:02.995Z,11.60
2019-04-10T02:47:14.733Z,10.20
2019-04-10T03:08:06.994Z,9.37
2019-04-10T03:11:00.404Z,10.03
2019-04-10T03:13:45.186Z,10.13
2019-04-10T03:16:53.394Z,10.00
2019-04-10T03:22:54.065Z,9.90
2019-04-10T03:25:41.653Z,10.03
2019-04-10T03:28:29.284Z,9.50
2019-04-10T03:31:17.173Z,10.40
2019-04-10T03:37:18.169Z,10.10
2019-04-10T03:40:25.142Z,9.53
2019-04-10T03:46:01.489Z,8.93
2019-04-10T03:48:51.519Z,9.10
2019-04-10T03:51:32.396Z,9.20
2019-04-10T03:54:39.214Z,9.00
2019-04-10T03:57:20.565Z,9.23
2019-04-10T04:03:20.450Z,9.20
2019-04-10T04:09:35.649Z,9.13
2019-04-10T04:15:35.912Z,8.80
2019-04-10T04:27:42.664Z,8.97
2019-04-10T04:33:41.939Z,9.27
2019-04-10T04:36:49.184Z,9.70
2019-04-10T04:39:38.178Z,10.40
2019-04-10T04:42:26.522Z,10.17
2019-04-10T04:48:34.702Z,10.20
2019-04-10T04:51:15.870Z,10.30
2019-04-10T04:53:56.906Z,10.53
2019-04-10T04:56:44.531Z,10.30
2019-04-10T04:59:32.452Z,10.67
2019-04-10T05:02:21.983Z,10.27
2019-04-10T05:05:10.951Z,10.90
2019-04-10T05:08:02.244Z,11.03
2019-04-10T05:10:49.654Z,9.87
2019-04-10T05:13:38.335Z,10.30
2019-04-10T05:16:25.833Z,10.97
2019-04-10T05:19:14.319Z,10.83
2019-04-10T05:22:01.879Z,10.67
2019-04-10T05:24:49.493Z,11.23
2019-04-10T05:27:37.555Z,10.63
2019-04-10T05:30:25.128Z,11.27
2019-04-10T05:33:12.739Z,11.33
2019-04-10T05:36:01.254Z,10.73
2019-04-10T05:38:51.002Z,9.97
2019-04-10T05:41:39.931Z,10.27
2019-04-10T05:44:31.798Z,11.70
2019-04-10T05:47:19.796Z,10.77
2019-04-10T05:50:00.602Z,10.67
2019-04-10T05:52:48.162Z,10.83
2019-04-10T05:55:36.513Z,11.50
2019-04-10T05:58:25.806Z,12.63
2019-04-10T06:01:15.686Z,11.70
2019-04-10T06:07:10.697Z,12.33
2019-04-10T07:02:50.571Z,10.87
2019-04-10T08:01:44.807Z,11.17
2019-04-10T08:04:33.165Z,9.97
2019-04-10T08:07:40.611Z,9.63
2019-04-10T08:13:24.592Z,10.53
2019-04-10T08:16:16.975Z,10.73
2019-04-10T08:19:04.663Z,10.53
2019-04-10T08:30:41.938Z,11.33
2019-04-10T09:02:48.611Z,12.30
2019-04-10T09:05:36.256Z,13.23
2019-04-10T09:08:24.583Z,11.27
2019-04-10T09:11:13.036Z,12.53
2019-04-10T09:14:01.065Z,13.90
2019-04-10T09:19:40.312Z,12.63
2019-04-10T09:22:41.932Z,13.00
2019-04-10T09:25:19.681Z,12.17
2019-04-10T09:28:10.467Z,12.23
2019-04-10T09:30:59.663Z,12.10
2019-04-10T09:34:06.053Z,12.30
2019-04-10T09:36:53.653Z,11.87
2019-04-10T09:39:41.356Z,12.33
2019-04-10T09:42:48.122Z,12.30
2019-04-10T09:45:37.155Z,11.80
2019-04-10T09:48:26.439Z,11.63
2019-04-10T09:51:19.249Z,12.53
2019-04-10T09:54:07.859Z,11.70
2019-04-10T09:56:57.115Z,12.27
2019-04-10T09:59:46.077Z,11.50
2019-04-10T10:02:35.765Z,11.63
2019-04-10T10:05:24.515Z,11.37
2019-04-10T10:08:12.332Z,11.40
2019-04-10T10:10:59.817Z,13.30
2019-04-10T10:13:48.260Z,11.50
2019-04-10T10:16:35.905Z,11.83
2019-04-10T10:19:42.615Z,12.77
2019-04-10T10:22:32.000Z,14.27
2019-04-10T10:25:21.570Z,12.23
2019-04-10T10:28:09.192Z,14.20
2019-04-10T10:30:57.895Z,13.43
2019-04-10T10:36:41.948Z,12.63
2019-04-10T10:39:28.560Z,12.23
2019-04-10T10:42:17.464Z,13.10
2019-04-10T10:45:04.791Z,12.77
2019-04-10T10:47:54.794Z,14.43
2019-04-10T10:50:42.270Z,12.50
2019-04-10T10:53:48.607Z,13.27
2019-04-10T10:56:36.277Z,12.23
2019-04-10T10:59:25.100Z,12.77
2019-04-10T11:02:15.774Z,13.53
2019-04-10T11:05:06.925Z,14.33
2019-04-10T11:07:53.114Z,12.90
2019-04-10T11:54:37.607Z,12.10
2019-04-10T11:57:45.896Z,11.83
2019-04-10T12:00:33.269Z,10.43
2019-04-10T14:01:41.802Z,14.40
2019-04-10T14:04:29.916Z,14.47
2019-04-10T14:07:36.503Z,14.03
2019-04-10T14:10:44.742Z,13.43
2019-04-10T14:13:32.341Z,13.83
2019-04-10T14:16:20.332Z,15.17
2019-04-10T14:19:09.625Z,13.67
2019-04-10T14:21:57.553Z,13.47
2019-04-10T14:24:48.233Z,14.63
2019-04-10T14:27:34.493Z,13.73
2019-04-10T15:05:50.954Z,13.20
2019-04-10T15:08:37.782Z,13.07
2019-04-10T15:11:26.705Z,13.00
2019-04-10T15:14:15.311Z,14.13
2019-04-10T15:17:05.981Z,13.87
2019-04-10T15:19:53.614Z,14.30
2019-04-10T15:23:00.952Z,13.50
2019-04-10T15:25:56.180Z,13.40
2019-04-10T15:35:12.572Z,13.17
2019-04-10T15:38:01.889Z,11.93
2019-04-10T15:44:02.827Z,12.70
2019-04-10T15:46:51.260Z,14.10
2019-04-10T15:49:39.272Z,13.37
2019-04-10T15:52:20.596Z,12.30
2019-04-10T15:58:15.009Z,12.40
2019-04-10T16:04:31.688Z,11.80
2019-04-10T16:07:20.278Z,11.27
2019-04-10T16:10:28.866Z,11.13
2019-04-10T16:13:28.206Z,12.37
2019-04-10T17:02:59.415Z,10.47
2019-04-10T17:05:48.022Z,10.57
2019-04-10T17:11:53.828Z,9.53
2019-04-10T17:14:41.978Z,9.83
2019-04-10T17:20:23.102Z,12.30
2019-04-10T17:23:10.649Z,11.07
2019-04-10T17:25:58.334Z,9.87
2019-04-10T17:28:48.339Z,10.20
2019-04-10T17:31:36.622Z,10.13
2019-04-10T17:37:26.576Z,10.60
2019-04-10T17:40:27.449Z,9.67
2019-04-10T17:43:05.550Z,9.90
2019-04-10T17:45:47.060Z,10.23
2019-04-10T17:51:43.946Z,9.53
2019-04-10T17:54:32.173Z,10.43
2019-04-10T17:57:19.769Z,9.80
2019-04-10T18:00:07.496Z,9.63
2019-04-10T18:03:03.433Z,8.90
2019-04-10T18:05:53.105Z,9.47
2019-04-10T18:08:59.591Z,11.80
2019-04-10T18:11:54.044Z,8.70
2019-04-10T18:14:42.638Z,9.60
2019-04-10T18:17:31.485Z,9.93
2019-04-10T18:20:19.909Z,9.57
2019-04-10T18:23:09.311Z,8.73
2019-04-10T18:25:58.312Z,10.17
2019-04-10T18:28:45.900Z,9.97
2019-04-10T18:31:34.799Z,8.50
2019-04-10T18:34:29.054Z,8.23
2019-04-10T18:37:19.893Z,8.97
2019-04-10T18:40:07.501Z,8.83
2019-04-10T18:42:57.540Z,8.60
2019-04-10T18:46:10.731Z,8.50
2019-04-10T18:54:52.056Z,8.93
2019-04-10T18:57:41.004Z,10.20
2019-04-10T19:00:48.551Z,10.07
2019-04-10T19:03:59.665Z,10.63
2019-04-10T19:09:58.312Z,8.10
2019-04-10T19:12:48.773Z,8.83
2019-04-10T19:15:37.154Z,8.20
2019-04-10T19:18:25.937Z,8.40
2019-04-10T19:21:13.484Z,7.70
2019-04-10T19:35:44.106Z,8.00
2019-04-10T19:38:31.636Z,7.73
2019-04-10T19:44:32.383Z,7.57
2019-04-10T19:56:10.975Z,7.45
2019-04-10T19:58:58.858Z,7.63
2019-04-10T20:01:46.532Z,7.30
2019-04-10T20:04:36.808Z,7.40
2019-04-10T20:07:43.219Z,7.60
2019-04-10T20:10:30.781Z,7.10
2019-04-10T20:13:21.431Z,7.27
2019-04-10T20:16:09.171Z,7.70
2019-04-10T20:18:50.789Z,6.80
2019-04-10T20:21:41.871Z,7.80
2019-04-10T20:24:30.392Z,7.30
2019-04-10T20:33:42.983Z,7.17
2019-04-10T20:36:33.276Z,6.70
2019-04-10T20:39:21.116Z,6.37
2019-04-10T21:05:53.910Z,5.80
2019-04-10T21:08:44.610Z,5.50
2019-04-10T21:11:33.296Z,5.90
2019-04-10T21:14:30.102Z,5.90
2019-04-10T21:17:17.663Z,7.47
2019-04-10T21:23:36.411Z,5.60
2019-04-10T21:26:24.077Z,6.43
2019-04-10T21:44:34.935Z,5.03
2019-04-10T21:47:17.378Z,5.67
2019-04-10T22:09:16.719Z,4.73
2019-04-10T22:47:20.417Z,4.77
2019-04-10T22:50:18.072Z,4.80
2019-04-10T22:56:26.292Z,5.23
2019-04-10T22:59:13.786Z,4.53
2019-04-10T23:02:07.334Z,5.07
2019-04-10T23:08:18.233Z,4.67
2019-04-10T23:11:34.791Z,4.40
2019-04-10T23:14:14.369Z,4.70
2019-04-10T23:53:55.398Z,4.43
2019-04-10T23:56:44.787Z,4.77
